Grass Range, MT

12:56 AM MDT on April 01, 2015 (GMT -0600)
MesoWest | | Change Station
CLOSE
Current Station
Personal Weather Station
Location: Lewistown, MT
Elevation: 4624 ft
Nearby Weather Stations

Elev 4624 ft 47.06 °N, 109.18 °W | Updated 37 minutes ago

Overcast
Overcast
39 °F
Feels Like 31 °F
N
13
Wind Variable Wind from WNW
Gusts 21.0 mph

Today
High -- | Low -- °F
--% Chance of Precip.
Yesterday
High -- | Low -- °F
Precip. -- in
6:55 AM 7:44 PM
Waxing Gibbous, 91% visible
Pressure 29.73 in
Visibility 10.0 miles
Clouds Overcast 3700 ft
Windchill 31 °F
Dew Point 38 °F
Humidity 98%
Rainfall in
Snow Depth Not available.
UV 0 out of 12
Pollen 7.30 out of 12
Air Quality Not available.
Flu Activity Not available.
SPECI KLWT 010604Z AUTO 30006KT 10SM OVC037 07/03 A2973 RMK AO2 RAE04 P0000 T00670028

More Conditions Fewer Conditions

Pressure 29.73 in
Visibility 10.0 miles
Clouds Overcast 3700 ft
Windchill 31 °F
Dew Point 38 °F
Humidity 98%
Rainfall in
Snow Depth Not available.
UV 0 out of 12
Pollen 7.30 out of 12
Air Quality Not available.
Flu Activity Not available.
SPECI KLWT 010604Z AUTO 30006KT 10SM OVC037 07/03 A2973 RMK AO2 RAE04 P0000 T00670028

More Conditions Fewer Conditions

10-Day Weather Forecast

Almanac

Astronomy

Apr. 01, 2015 Rise Set
Actual Time
Civil Twilight
Nautical Twilight
Astronomical Twilight
Moon
Length of Visible Light
Length of Day
Tomorrow will be .
, % of the Moon is Illuminated

Today's Extremes

State Highs State Lows

Community

WunderPhotos

Upload Photos

1,809,924 photos uploaded!

WunderBlogs® & News

Nearby

Air Quality

  Air Quality AQ Index Pollutant
Not available.

Snow Depth

Station Depth Elevation

Earthquake Activity

City Distance Mag. Time & Date
Minimum magnitude displayed is 2.5.

Coastal Water Temperatures

Place Temperature

Stations

Nearby Weather Stations

Station Location Temp. Windchill Dew Point Humidity Wind Precip. Elev Updated Type